sensor_id;sensor_type;location;lat;lon;timestamp;pressure;altitude;pressure_sealevel;temperature;humidity
69027;BME280;56080;47.594;19.116;2023-01-25T00:09:40;101836;;;0.66;93.99
69027;BME280;56080;47.594;19.116;2023-01-25T00:19:39;101842;;;0.72;95.46
69027;BME280;56080;47.594;19.116;2023-01-25T00:29:40;101839;;;0.76;95.11
69027;BME280;56080;47.594;19.116;2023-01-25T00:39:40;101832;;;0.65;96.26
69027;BME280;56080;47.594;19.116;2023-01-25T00:49:41;101838;;;0.51;96.88
69027;BME280;56080;47.594;19.116;2023-01-25T00:59:43;101855;;;0.42;94.78
69027;BME280;56080;47.594;19.116;2023-01-25T01:09:40;101862;;;0.69;98.22
69027;BME280;56080;47.594;19.116;2023-01-25T01:19:40;101858;;;0.49;100.00
69027;BME280;56080;47.594;19.116;2023-01-25T01:29:40;101851;;;0.88;100.00
69027;BME280;56080;47.594;19.116;2023-01-25T01:39:41;101850;;;0.58;97.97
69027;BME280;56080;47.594;19.116;2023-01-25T01:49:41;101850;;;0.23;96.99
69027;BME280;56080;47.594;19.116;2023-01-25T01:59:47;101842;;;0.06;96.54
69027;BME280;56080;47.594;19.116;2023-01-25T02:09:41;101851;;;-0.24;98.58
69027;BME280;56080;47.594;19.116;2023-01-25T02:19:43;101844;;;-0.21;97.77
69027;BME280;56080;47.594;19.116;2023-01-25T02:29:41;101838;;;-0.47;98.05
69027;BME280;56080;47.594;19.116;2023-01-25T02:39:41;101829;;;-0.47;97.19
69027;BME280;56080;47.594;19.116;2023-01-25T02:49:41;101822;;;-0.53;97.75
69027;BME280;56080;47.594;19.116;2023-01-25T02:59:41;101821;;;-0.63;98.91
69027;BME280;56080;47.594;19.116;2023-01-25T03:09:41;101812;;;-0.81;99.23
69027;BME280;56080;47.594;19.116;2023-01-25T03:29:41;101808;;;-0.40;100.00
69027;BME280;56080;47.594;19.116;2023-01-25T03:39:41;101808;;;-0.24;100.00
69027;BME280;56080;47.594;19.116;2023-01-25T03:49:41;101801;;;-0.48;100.00
69027;BME280;56080;47.594;19.116;2023-01-25T03:59:41;101799;;;-0.56;100.00
69027;BME280;56080;47.594;19.116;2023-01-25T04:09:41;101796;;;-0.88;100.00
69027;BME280;56080;47.594;19.116;2023-01-25T04:19:42;101802;;;-0.73;100.00
69027;BME280;56080;47.594;19.116;2023-01-25T04:29:42;101797;;;-0.77;100.00
69027;BME280;56080;47.594;19.116;2023-01-25T04:39:41;101799;;;-0.73;100.00
69027;BME280;56080;47.594;19.116;2023-01-25T04:49:42;101809;;;-0.76;100.00
69027;BME280;56080;47.594;19.116;2023-01-25T04:59:44;101795;;;-0.92;100.00
69027;BME280;56080;47.594;19.116;2023-01-25T05:09:41;101803;;;-0.85;100.00
69027;BME280;56080;47.594;19.116;2023-01-25T05:19:41;101804;;;-0.84;100.00
69027;BME280;56080;47.594;19.116;2023-01-25T05:29:43;101817;;;-1.03;100.00
69027;BME280;56080;47.594;19.116;2023-01-25T05:39:41;101817;;;-1.24;100.00
69027;BME280;56080;47.594;19.116;2023-01-25T05:49:41;101817;;;-0.93;100.00
69027;BME280;56080;47.594;19.116;2023-01-25T05:59:41;101815;;;-1.20;99.05
69027;BME280;56080;47.594;19.116;2023-01-25T06:09:41;101817;;;-1.10;100.00
69027;BME280;56080;47.594;19.116;2023-01-25T06:19:42;101830;;;-1.00;99.80
69027;BME280;56080;47.594;19.116;2023-01-25T06:29:42;101834;;;-1.33;100.00
69027;BME280;56080;47.594;19.116;2023-01-25T06:39:42;101837;;;-1.18;100.00
69027;BME280;56080;47.594;19.116;2023-01-25T06:49:42;101843;;;-1.17;99.95
69027;BME280;56080;47.594;19.116;2023-01-25T06:59:41;101835;;;-1.10;99.04
69027;BME280;56080;47.594;19.116;2023-01-25T07:09:41;101841;;;-1.09;99.30
69027;BME280;56080;47.594;19.116;2023-01-25T07:19:42;101837;;;-0.85;98.53
69027;BME280;56080;47.594;19.116;2023-01-25T07:29:41;101841;;;-0.67;97.61
69027;BME280;56080;47.594;19.116;2023-01-25T07:39:47;101838;;;-0.58;97.99
69027;BME280;56080;47.594;19.116;2023-01-25T07:49:41;101843;;;-0.10;97.51
69027;BME280;56080;47.594;19.116;2023-01-25T07:59:41;101840;;;0.48;95.70
69027;BME280;56080;47.594;19.116;2023-01-25T08:09:42;101832;;;1.02;93.21
69027;BME280;56080;47.594;19.116;2023-01-25T08:19:42;101827;;;1.49;89.89
69027;BME280;56080;47.594;19.116;2023-01-25T08:29:44;101830;;;1.96;87.77
69027;BME280;56080;47.594;19.116;2023-01-25T08:39:42;101828;;;2.38;87.36
69027;BME280;56080;47.594;19.116;2023-01-25T08:49:44;101819;;;2.26;87.30
69027;BME280;56080;47.594;19.116;2023-01-25T08:59:43;101820;;;2.11;88.61
69027;BME280;56080;47.594;19.116;2023-01-25T09:09:43;101813;;;2.09;89.91
69027;BME280;56080;47.594;19.116;2023-01-25T09:19:43;101808;;;2.17;90.54
69027;BME280;56080;47.594;19.116;2023-01-25T09:29:53;101810;;;1.94;92.77
69027;BME280;56080;47.594;19.116;2023-01-25T09:39:43;101811;;;2.19;93.75
69027;BME280;56080;47.594;19.116;2023-01-25T09:59:44;101779;;;2.11;96.06
69027;BME280;56080;47.594;19.116;2023-01-25T10:09:47;101767;;;2.34;95.78
69027;BME280;56080;47.594;19.116;2023-01-25T10:29:45;101742;;;2.62;95.84
69027;BME280;56080;47.594;19.116;2023-01-25T10:39:52;101736;;;2.95;95.08
69027;BME280;56080;47.594;19.116;2023-01-25T10:49:46;101728;;;2.94;95.25
69027;BME280;56080;47.594;19.116;2023-01-25T10:59:47;101711;;;2.92;95.95
69027;BME280;56080;47.594;19.116;2023-01-25T11:09:45;101689;;;3.01;94.85
69027;BME280;56080;47.594;19.116;2023-01-25T11:19:46;101682;;;3.16;94.23
69027;BME280;56080;47.594;19.116;2023-01-25T11:30:05;101670;;;3.02;93.90
69027;BME280;56080;47.594;19.116;2023-01-25T12:29:50;101560;;;3.52;90.68
69027;BME280;56080;47.594;19.116;2023-01-25T12:39:56;101555;;;3.57;89.93
69027;BME280;56080;47.594;19.116;2023-01-25T12:49:52;101538;;;3.57;89.09
69027;BME280;56080;47.594;19.116;2023-01-25T13:09:51;101522;;;3.53;88.06
69027;BME280;56080;47.594;19.116;2023-01-25T13:19:50;101508;;;3.61;87.89
69027;BME280;56080;47.594;19.116;2023-01-25T13:29:53;101506;;;3.65;88.43
69027;BME280;56080;47.594;19.116;2023-01-25T13:49:56;101500;;;3.65;88.46
69027;BME280;56080;47.594;19.116;2023-01-25T14:00:04;101488;;;3.82;88.55
69027;BME280;56080;47.594;19.116;2023-01-25T14:09:52;101488;;;3.75;88.13
69027;BME280;56080;47.594;19.116;2023-01-25T14:19:53;101474;;;3.75;88.28
69027;BME280;56080;47.594;19.116;2023-01-25T14:29:52;101474;;;3.85;88.76
69027;BME280;56080;47.594;19.116;2023-01-25T14:39:53;101472;;;3.66;88.95
69027;BME280;56080;47.594;19.116;2023-01-25T14:49:53;101471;;;3.74;88.68
69027;BME280;56080;47.594;19.116;2023-01-25T14:59:53;101464;;;3.73;88.69
69027;BME280;56080;47.594;19.116;2023-01-25T15:10:03;101457;;;3.68;88.68
69027;BME280;56080;47.594;19.116;2023-01-25T15:19:54;101458;;;3.57;88.97
69027;BME280;56080;47.594;19.116;2023-01-25T15:29:54;101451;;;3.63;89.24
69027;BME280;56080;47.594;19.116;2023-01-25T15:39:57;101449;;;3.59;89.17
69027;BME280;56080;47.594;19.116;2023-01-25T15:49:56;101447;;;3.58;88.90
69027;BME280;56080;47.594;19.116;2023-01-25T15:59:56;101451;;;3.56;89.51
69027;BME280;56080;47.594;19.116;2023-01-25T16:09:56;101438;;;3.56;89.48
69027;BME280;56080;47.594;19.116;2023-01-25T16:19:56;101431;;;3.55;89.98
69027;BME280;56080;47.594;19.116;2023-01-25T16:29:57;101430;;;3.36;91.20
69027;BME280;56080;47.594;19.116;2023-01-25T16:39:57;101429;;;3.38;91.90
69027;BME280;56080;47.594;19.116;2023-01-25T16:49:58;101426;;;3.59;90.59
69027;BME280;56080;47.594;19.116;2023-01-25T16:59:58;101424;;;3.44;91.22
69027;BME280;56080;47.594;19.116;2023-01-25T17:09:58;101416;;;3.45;90.38
69027;BME280;56080;47.594;19.116;2023-01-25T17:20:01;101406;;;3.50;89.15
69027;BME280;56080;47.594;19.116;2023-01-25T17:29:59;101407;;;3.53;89.83
69027;BME280;56080;47.594;19.116;2023-01-25T17:40:02;101391;;;3.14;90.75
69027;BME280;56080;47.594;19.116;2023-01-25T17:50:00;101378;;;3.19;90.16
69027;BME280;56080;47.594;19.116;2023-01-25T18:00:00;101370;;;2.94;91.62
69027;BME280;56080;47.594;19.116;2023-01-25T18:10:00;101369;;;2.96;92.32
69027;BME280;56080;47.594;19.116;2023-01-25T18:20:04;101369;;;3.02;92.26
69027;BME280;56080;47.594;19.116;2023-01-25T18:30:03;101354;;;3.18;92.27
69027;BME280;56080;47.594;19.116;2023-01-25T18:40:01;101330;;;3.07;92.31
69027;BME280;56080;47.594;19.116;2023-01-25T18:50:03;101325;;;3.03;92.24
69027;BME280;56080;47.594;19.116;2023-01-25T19:00:04;101320;;;2.99;92.30
69027;BME280;56080;47.594;19.116;2023-01-25T19:10:02;101307;;;3.02;92.53
69027;BME280;56080;47.594;19.116;2023-01-25T19:20:05;101299;;;2.92;92.50
69027;BME280;56080;47.594;19.116;2023-01-25T19:30:05;101290;;;2.78;93.22
69027;BME280;56080;47.594;19.116;2023-01-25T19:40:03;101279;;;2.76;92.86
69027;BME280;56080;47.594;19.116;2023-01-25T19:50:03;101274;;;2.66;93.04
69027;BME280;56080;47.594;19.116;2023-01-25T20:00:04;101269;;;2.86;92.31
69027;BME280;56080;47.594;19.116;2023-01-25T20:10:05;101264;;;2.76;93.05
69027;BME280;56080;47.594;19.116;2023-01-25T20:20:10;101256;;;2.75;92.91
69027;BME280;56080;47.594;19.116;2023-01-25T20:30:08;101247;;;2.83;93.11
69027;BME280;56080;47.594;19.116;2023-01-25T20:40:04;101235;;;2.80;92.60
69027;BME280;56080;47.594;19.116;2023-01-25T20:50:07;101225;;;2.89;92.82
69027;BME280;56080;47.594;19.116;2023-01-25T21:00:04;101215;;;2.79;92.98
69027;BME280;56080;47.594;19.116;2023-01-25T21:10:05;101201;;;2.96;92.38
69027;BME280;56080;47.594;19.116;2023-01-25T21:20:08;101196;;;2.90;92.58
69027;BME280;56080;47.594;19.116;2023-01-25T21:30:08;101188;;;2.95;92.84
69027;BME280;56080;47.594;19.116;2023-01-25T21:40:06;101186;;;2.97;92.74
69027;BME280;56080;47.594;19.116;2023-01-25T21:50:16;101173;;;2.94;92.97
69027;BME280;56080;47.594;19.116;2023-01-25T22:00:06;101164;;;2.96;93.19
69027;BME280;56080;47.594;19.116;2023-01-25T22:10:06;101164;;;3.00;93.17
69027;BME280;56080;47.594;19.116;2023-01-25T22:20:07;101149;;;3.01;93.75
69027;BME280;56080;47.594;19.116;2023-01-25T22:30:07;101139;;;2.97;94.10
69027;BME280;56080;47.594;19.116;2023-01-25T22:40:07;101136;;;2.92;94.71
69027;BME280;56080;47.594;19.116;2023-01-25T22:50:07;101122;;;2.95;94.94
69027;BME280;56080;47.594;19.116;2023-01-25T23:00:07;101118;;;2.94;94.84
69027;BME280;56080;47.594;19.116;2023-01-25T23:10:07;101104;;;2.88;95.29
69027;BME280;56080;47.594;19.116;2023-01-25T23:20:08;101101;;;2.65;96.14
69027;BME280;56080;47.594;19.116;2023-01-25T23:30:10;101098;;;2.62;96.64
69027;BME280;56080;47.594;19.116;2023-01-25T23:50:09;101060;;;2.55;96.37
